Time;durP1;ratioP1;P1;durP2;ratioP2;P2;SDS_P1;SDS_P2;PMS_P1;PMS_P2;Temp;Humidity;BMP_temperature;BMP_pressure;BME280_temperature;BME280_humidity;BME280_pressure;Samples;Min_cycle;Max_cycle;Signal;HPM_P1;HPM_P2
2022/09/27 00:01:59;;;;;;;0.70;0.68;;;21.30;59.30;;;;;;4981267;28;20031;-18
2022/09/27 00:04:25;;;;;;;0.45;0.40;;;21.30;59.40;;;;;;4981484;28;20065;-19
2022/09/27 00:06:50;;;;;;;0.50;0.40;;;21.30;59.40;;;;;;4976219;28;20038;-18
2022/09/27 00:09:16;;;;;;;0.55;0.55;;;21.30;59.40;;;;;;4979746;28;20346;-18
2022/09/27 00:11:42;;;;;;;0.50;0.50;;;21.30;59.40;;;;;;4979058;28;20057;-18
2022/09/27 00:14:07;;;;;;;0.70;0.70;;;21.20;59.40;;;;;;4980896;28;20053;-19
2022/09/27 00:16:34;;;;;;;0.30;0.20;;;21.30;59.40;;;;;;4977233;28;20046;-19
2022/09/27 00:19:05;;;;;;;1.00;0.60;;;21.30;59.40;;;;;;4978288;28;20077;-19
2022/09/27 00:21:31;;;;;;;0.68;0.50;;;21.30;59.40;;;;;;4978810;28;20116;-18
2022/09/27 00:23:56;;;;;;;0.90;0.35;;;21.30;59.50;;;;;;4979949;28;20511;-18
2022/09/27 00:26:22;;;;;;;0.30;0.30;;;21.30;59.40;;;;;;4979620;28;20085;-18
2022/09/27 00:28:48;;;;;;;0.98;0.40;;;21.30;59.40;;;;;;4979774;28;20589;-18
2022/09/27 00:31:21;;;;;;;0.43;0.40;;;21.30;59.50;;;;;;4980886;28;20042;-19
2022/09/27 00:33:47;;;;;;;1.80;0.50;;;21.30;59.40;;;;;;4979847;28;20046;-18
2022/09/27 00:36:13;;;;;;;0.30;0.30;;;21.30;59.50;;;;;;4977123;28;20050;-18
2022/09/27 00:38:39;;;;;;;0.43;0.30;;;21.30;59.40;;;;;;4980743;28;20117;-18
2022/09/27 00:41:05;;;;;;;0.40;0.40;;;21.30;59.40;;;;;;4979335;28;20066;-19
2022/09/27 00:43:43;;;;;;;0.63;0.40;;;21.30;59.50;;;;;;4981415;28;20045;-25
2022/09/27 00:46:08;;;;;;;0.50;0.40;;;21.30;59.50;;;;;;4978934;28;20077;-18
2022/09/27 00:48:34;;;;;;;0.47;0.40;;;21.20;59.40;;;;;;4980395;28;20141;-19
2022/09/27 00:51:00;;;;;;;0.70;0.35;;;21.30;59.40;;;;;;4993157;28;20046;-24
2022/09/27 00:53:45;;;;;;;0.77;0.50;;;21.30;59.30;;;;;;4983804;28;20129;-18
2022/09/27 00:56:15;;;;;;;;;;;21.30;59.40;;;;;;4977927;28;20042;-18
2022/09/27 00:58:54;;;;;;;0.50;0.35;;;21.30;59.30;;;;;;4962501;28;19922;-18
2022/09/27 01:01:20;;;;;;;0.25;0.25;;;21.30;59.30;;;;;;4978951;28;20042;-18
2022/09/27 01:03:53;;;;;;;0.32;0.30;;;21.30;59.90;;;;;;4978235;28;20051;-18
2022/09/27 01:06:20;;;;;;;0.68;0.45;;;21.20;59.30;;;;;;4961338;28;20042;-19
2022/09/27 01:08:45;;;;;;;2.28;0.50;;;21.20;59.30;;;;;;4981829;28;20054;-19
2022/09/27 01:11:36;;;;;;;0.25;0.25;;;21.20;59.30;;;;;;4981938;28;20393;-19
2022/09/27 01:14:25;;;;;;;0.35;0.30;;;21.20;59.30;;;;;;4979873;28;20114;-23
2022/09/27 01:17:14;;;;;;;0.40;0.40;;;21.20;59.30;;;;;;4957449;28;20135;-19
2022/09/27 01:20:17;;;;;;;0.30;0.30;;;21.30;59.30;;;;;;4982223;28;21224;-18
2022/09/27 01:23:19;;;;;;;0.50;0.40;;;21.20;59.20;;;;;;4984478;28;20069;-23
2022/09/27 01:25:48;;;;;;;0.20;0.20;;;21.20;59.30;;;;;;4982480;28;20038;-21
2022/09/27 01:28:34;;;;;;;0.60;0.40;;;21.20;59.30;;;;;;4982176;28;20061;-20
2022/09/27 01:31:10;;;;;;;0.30;0.30;;;21.20;59.40;;;;;;4982352;28;20567;-19
2022/09/27 01:34:01;;;;;;;0.30;0.28;;;21.20;59.30;;;;;;4983600;28;20077;-23
2022/09/27 01:36:42;;;;;;;0.82;0.30;;;21.20;59.30;;;;;;4976012;28;20057;-19
2022/09/27 01:39:10;;;;;;;0.47;0.30;;;21.20;59.40;;;;;;4998813;28;20109;-19
2022/09/27 01:41:39;;;;;;;0.60;0.40;;;21.20;59.30;;;;;;5000676;28;20050;-19
2022/09/27 01:44:10;;;;;;;0.30;0.30;;;21.20;59.40;;;;;;4982875;28;20559;-25
2022/09/27 01:46:46;;;;;;;0.38;0.30;;;21.20;59.30;;;;;;4980368;28;20043;-19
2022/09/27 01:49:18;;;;;;;0.30;0.30;;;21.20;59.40;;;;;;4982337;28;20479;-20
2022/09/27 01:51:49;;;;;;;1.77;0.30;;;21.20;59.50;;;;;;4983656;28;20039;-18
2022/09/27 01:54:18;;;;;;;0.50;0.40;;;21.20;59.40;;;;;;4998115;28;20042;-18
2022/09/27 01:56:51;;;;;;;0.90;0.43;;;21.20;59.40;;;;;;4996706;28;20121;-18
2022/09/27 01:59:28;;;;;;;0.45;0.22;;;21.20;59.40;;;;;;4983540;28;20043;-18
2022/09/27 02:01:54;;;;;;;0.32;0.30;;;21.20;59.60;;;;;;4981293;28;20050;-18
2022/09/27 02:04:24;;;;;;;0.30;0.20;;;21.20;59.60;;;;;;4965301;28;20323;-20
2022/09/27 02:06:53;;;;;;;0.40;0.40;;;21.20;59.50;;;;;;4981179;28;20412;-19
2022/09/27 02:09:31;;;;;;;0.70;0.30;;;21.20;59.50;;;;;;4964936;28;20116;-18
2022/09/27 02:12:00;;;;;;;0.30;0.30;;;21.20;59.50;;;;;;4980674;28;20039;-18
2022/09/27 02:14:35;;;;;;;0.52;0.30;;;21.20;59.50;;;;;;4997692;28;20306;-18
2022/09/27 02:17:40;;;;;;;0.43;0.40;;;21.20;59.40;;;;;;4981724;28;20452;-19
2022/09/27 02:20:17;;;;;;;0.32;0.30;;;21.20;59.40;;;;;;4977463;28;20061;-19
2022/09/27 02:23:08;;;;;;;0.40;0.30;;;21.20;59.50;;;;;;4975106;28;20541;-19
2022/09/27 02:25:59;;;;;;;0.43;0.35;;;21.20;59.60;;;;;;4961581;28;20050;-18
2022/09/27 02:28:29;;;;;;;0.20;0.20;;;21.20;59.50;;;;;;4961369;28;20416;-18
2022/09/27 02:30:55;;;;;;;0.50;0.20;;;21.20;59.50;;;;;;4975466;28;20055;-19
2022/09/27 02:33:25;;;;;;;0.15;0.10;;;21.20;59.60;;;;;;4949247;28;20081;-18
2022/09/27 02:35:51;;;;;;;0.20;0.20;;;21.10;59.60;;;;;;4977805;28;20038;-19
2022/09/27 02:38:17;;;;;;;0.50;0.40;;;21.20;59.50;;;;;;4961561;28;20393;-19
2022/09/27 02:40:43;;;;;;;0.10;0.10;;;21.20;59.60;;;;;;4963506;28;20050;-19
2022/09/27 02:43:09;;;;;;;0.40;0.25;;;21.20;59.60;;;;;;4974719;28;20054;-18
2022/09/27 02:45:58;;;;;;;0.20;0.20;;;21.20;59.50;;;;;;4976240;28;20134;-18
2022/09/27 02:48:32;;;;;;;0.20;0.20;;;21.10;59.40;;;;;;4977921;28;20105;-18
2022/09/27 02:51:13;;;;;;;0.20;0.17;;;21.10;59.40;;;;;;4961643;28;20070;-19
2022/09/27 02:53:54;;;;;;;0.22;0.20;;;21.10;59.40;;;;;;4980262;28;20224;-18
2022/09/27 02:56:32;;;;;;;0.35;0.20;;;21.10;59.50;;;;;;4978154;28;20053;-18
2022/09/27 02:59:09;;;;;;;0.30;0.20;;;21.20;59.50;;;;;;4981144;28;20131;-18
2022/09/27 03:01:59;;;;;;;0.63;0.63;;;21.10;59.50;;;;;;4982032;28;20069;-19
2022/09/27 03:04:43;;;;;;;0.47;0.30;;;21.10;59.50;;;;;;4993366;28;20047;-22
2022/09/27 03:07:09;;;;;;;0.40;0.20;;;21.10;59.50;;;;;;4978603;28;20042;-18
2022/09/27 03:09:46;;;;;;;0.57;0.47;;;21.20;59.50;;;;;;4965316;28;20052;-19
2022/09/27 03:12:12;;;;;;;0.47;0.40;;;21.10;59.50;;;;;;4979983;28;20049;-19
2022/09/27 03:14:38;;;;;;;0.22;0.20;;;21.10;59.40;;;;;;4982902;28;20042;-19
2022/09/27 03:17:03;;;;;;;1.48;0.20;;;21.10;59.60;;;;;;4981884;28;20495;-18
2022/09/27 03:19:29;;;;;;;0.43;0.30;;;21.10;59.60;;;;;;4982315;28;20093;-19
2022/09/27 03:21:54;;;;;;;0.25;0.22;;;21.10;59.50;;;;;;4982992;28;20042;-20
2022/09/27 03:24:20;;;;;;;0.20;0.20;;;21.10;59.40;;;;;;4982236;28;20377;-18
2022/09/27 03:26:46;;;;;;;0.43;0.30;;;21.10;59.40;;;;;;4981570;28;20088;-19
2022/09/27 03:29:11;;;;;;;0.20;0.10;;;21.10;59.50;;;;;;4982310;28;20057;-19
2022/09/27 03:31:37;;;;;;;0.20;0.10;;;21.10;59.70;;;;;;4980869;28;20122;-19
2022/09/27 03:34:02;;;;;;;0.40;0.20;;;21.10;59.40;;;;;;4980853;28;20161;-19
2022/09/27 03:36:28;;;;;;;0.38;0.30;;;21.10;59.40;;;;;;4979475;28;20254;-19
2022/09/27 03:38:53;;;;;;;0.40;0.20;;;21.10;59.40;;;;;;4982615;28;20057;-20
2022/09/27 03:41:19;;;;;;;0.38;0.25;;;21.10;59.60;;;;;;4982733;28;20093;-19
2022/09/27 03:43:45;;;;;;;0.38;0.30;;;21.10;59.50;;;;;;4981758;28;20030;-19
2022/09/27 03:46:10;;;;;;;1.45;0.30;;;21.10;59.50;;;;;;4976893;28;20073;-18
2022/09/27 03:48:36;;;;;;;0.50;0.30;;;21.10;59.60;;;;;;4982357;28;20096;-19
2022/09/27 03:51:03;;;;;;;0.45;0.20;;;21.10;59.50;;;;;;4981158;28;20053;-19
2022/09/27 03:53:29;;;;;;;0.35;0.20;;;21.10;59.50;;;;;;4980672;28;20050;-19
2022/09/27 03:55:54;;;;;;;0.30;0.20;;;21.10;59.40;;;;;;4977875;28;20035;-20
2022/09/27 03:58:20;;;;;;;0.30;0.20;;;21.10;59.50;;;;;;4980778;28;20073;-19
2022/09/27 04:00:46;;;;;;;0.30;0.20;;;21.10;59.40;;;;;;4981401;28;20049;-18
2022/09/27 04:03:12;;;;;;;0.20;0.20;;;21.00;59.50;;;;;;4980508;28;20057;-19
2022/09/27 04:05:37;;;;;;;0.20;0.20;;;21.10;59.50;;;;;;4979253;28;20117;-19
2022/09/27 04:08:05;;;;;;;0.20;0.20;;;21.10;59.50;;;;;;4982377;28;20125;-24
2022/09/27 04:10:30;;;;;;;0.50;0.30;;;21.10;59.50;;;;;;4981811;28;20254;-28
2022/09/27 04:12:56;;;;;;;0.60;0.30;;;21.10;59.60;;;;;;4981853;28;20098;-19
2022/09/27 04:15:22;;;;;;;0.55;0.50;;;21.10;59.60;;;;;;4976897;28;20524;-19
2022/09/27 04:17:47;;;;;;;0.40;0.40;;;21.10;59.70;;;;;;4982579;28;20120;-18
2022/09/27 04:20:13;;;;;;;0.22;0.20;;;21.10;59.60;;;;;;4980504;28;20066;-19
2022/09/27 04:22:40;;;;;;;0.30;0.20;;;21.10;59.80;;;;;;4980888;28;20504;-19
2022/09/27 04:25:07;;;;;;;0.22;0.20;;;21.00;59.70;;;;;;4977535;28;20065;-19
2022/09/27 04:27:33;;;;;;;0.45;0.38;;;21.10;59.50;;;;;;4980487;28;20071;-19
2022/09/27 04:29:58;;;;;;;0.45;0.20;;;21.10;59.60;;;;;;4980245;28;20129;-19
2022/09/27 04:32:24;;;;;;;0.32;0.20;;;21.10;59.70;;;;;;4980871;28;20050;-28
2022/09/27 04:37:35;;;;;;;0.25;0.20;;;21.10;59.70;;;;;;4979300;28;20049;-19
2022/09/27 04:40:01;;;;;;;0.30;0.20;;;21.10;59.60;;;;;;4980715;28;20038;-19
2022/09/27 04:42:27;;;;;;;0.17;0.17;;;21.10;59.60;;;;;;4980086;28;20062;-19
2022/09/27 04:44:52;;;;;;;0.22;0.10;;;21.10;59.50;;;;;;4980273;28;20683;-19
2022/09/27 04:47:19;;;;;;;0.10;0.10;;;21.10;59.80;;;;;;4980305;28;20070;-18
2022/09/27 04:49:46;;;;;;;0.28;0.28;;;21.00;60.00;;;;;;4977897;28;20050;-19
2022/09/27 04:52:11;;;;;;;0.40;0.20;;;21.00;60.40;;;;;;4980828;28;20043;-19
2022/09/27 04:54:37;;;;;;;0.50;0.30;;;21.00;60.00;;;;;;4982023;28;20578;-19
2022/09/27 04:57:02;;;;;;;0.55;0.22;;;21.00;59.90;;;;;;4980540;28;20049;-19
2022/09/27 04:59:28;;;;;;;0.70;0.30;;;21.00;59.80;;;;;;4986597;28;20058;-19
2022/09/27 05:01:54;;;;;;;0.28;0.20;;;21.10;59.80;;;;;;4984530;28;20070;-19
2022/09/27 05:04:20;;;;;;;0.20;0.20;;;21.00;59.80;;;;;;4983295;28;20131;-19
2022/09/27 05:06:46;;;;;;;0.30;0.20;;;21.00;59.80;;;;;;4981544;28;20500;-19
2022/09/27 05:09:11;;;;;;;0.10;0.10;;;21.00;59.80;;;;;;4984433;28;20042;-19
2022/09/27 05:11:37;;;;;;;0.55;0.20;;;21.00;60.10;;;;;;4985033;28;20459;-19
2022/09/27 05:14:03;;;;;;;0.28;0.20;;;21.00;59.40;;;;;;4985676;28;20052;-18
2022/09/27 05:16:29;;;;;;;0.45;0.20;;;21.00;59.50;;;;;;4981141;28;20053;-20
2022/09/27 05:18:56;;;;;;;0.28;0.20;;;20.90;59.90;;;;;;4985240;28;20050;-19
2022/09/27 05:21:22;;;;;;;1.15;0.20;;;20.90;60.40;;;;;;4983687;28;20046;-19
2022/09/27 05:23:47;;;;;;;2.05;0.20;;;20.90;60.00;;;;;;4985878;28;20797;-19
2022/09/27 05:26:13;;;;;;;0.38;0.20;;;20.90;59.90;;;;;;4982679;28;20042;-19
2022/09/27 05:28:43;;;;;;;1.05;0.20;;;20.90;60.10;;;;;;4985694;28;20050;-19
2022/09/27 05:31:09;;;;;;;1.73;0.32;;;20.90;59.90;;;;;;4986152;28;20112;-19
2022/09/27 05:33:35;;;;;;;0.50;0.30;;;20.90;59.80;;;;;;4986152;28;21024;-20
2022/09/27 05:36:01;;;;;;;1.90;0.52;;;20.90;60.30;;;;;;4988124;28;20129;-19
2022/09/27 05:38:27;;;;;;;0.57;0.30;;;20.80;60.20;;;;;;4989261;28;20072;-19
2022/09/27 05:40:52;;;;;;;0.40;0.30;;;20.90;60.30;;;;;;4987123;28;20817;-19
2022/09/27 05:43:18;;;;;;;0.40;0.20;;;20.90;60.30;;;;;;4987499;28;20050;-19
2022/09/27 05:45:44;;;;;;;1.00;0.30;;;20.90;60.30;;;;;;4988246;28;20037;-20
2022/09/27 05:48:11;;;;;;;0.25;0.20;;;21.00;61.20;;;;;;4988002;28;27567;-19
2022/09/27 05:50:36;;;;;;;1.98;0.30;;;21.00;60.40;;;;;;4990464;28;20132;-19
2022/09/27 05:53:02;;;;;;;0.60;0.20;;;21.00;60.30;;;;;;4985777;28;20085;-21
2022/09/27 05:55:28;;;;;;;0.20;0.10;;;20.90;60.30;;;;;;4984271;28;20045;-19
2022/09/27 05:57:59;;;;;;;0.20;0.10;;;21.00;60.30;;;;;;4985386;28;20034;-18
2022/09/27 06:00:25;;;;;;;0.45;0.28;;;20.90;60.40;;;;;;4987555;28;20615;-19
2022/09/27 06:02:58;;;;;;;0.60;0.20;;;20.90;60.50;;;;;;4986688;28;20046;-19
2022/09/27 06:05:24;;;;;;;0.67;0.40;;;20.90;60.60;;;;;;4987237;28;20042;-19
2022/09/27 06:07:50;;;;;;;0.40;0.22;;;20.80;60.60;;;;;;4985988;28;20053;-19
2022/09/27 06:10:17;;;;;;;0.30;0.30;;;20.80;60.60;;;;;;4987333;28;20050;-19
2022/09/27 06:12:43;;;;;;;0.38;0.20;;;20.80;60.60;;;;;;4986571;28;20026;-25
2022/09/27 06:15:09;;;;;;;0.20;0.20;;;20.80;60.90;;;;;;4984009;28;20039;-20
2022/09/27 06:17:34;;;;;;;0.40;0.30;;;20.80;60.90;;;;;;4989400;28;20121;-19
2022/09/27 06:20:00;;;;;;;1.23;0.52;;;20.80;60.90;;;;;;4984423;28;20421;-19
2022/09/27 06:22:26;;;;;;;0.43;0.10;;;20.80;60.90;;;;;;4984117;28;20563;-19
2022/09/27 06:24:51;;;;;;;0.45;0.20;;;20.80;60.80;;;;;;4984232;28;20042;-19
2022/09/27 06:27:17;;;;;;;0.30;0.20;;;20.80;60.70;;;;;;4984443;28;20304;-19
2022/09/27 06:29:43;;;;;;;0.38;0.20;;;20.80;60.80;;;;;;4987304;28;20054;-19
2022/09/27 06:32:09;;;;;;;0.20;0.20;;;20.80;60.90;;;;;;4986062;28;20053;-19
2022/09/27 06:34:35;;;;;;;0.65;0.30;;;20.80;60.90;;;;;;4986423;28;20050;-19
2022/09/27 06:37:01;;;;;;;0.52;0.20;;;20.80;60.80;;;;;;4984883;28;20046;-20
2022/09/27 06:39:27;;;;;;;1.45;0.47;;;20.90;61.50;;;;;;4984982;28;20049;-19
2022/09/27 06:41:57;;;;;;;0.60;0.50;;;20.80;60.80;;;;;;4986916;28;20041;-19
2022/09/27 06:44:23;;;;;;;0.88;0.10;;;20.80;60.90;;;;;;4987080;28;20125;-19
2022/09/27 06:46:52;;;;;;;0.22;0.15;;;20.80;61.00;;;;;;4985973;28;20507;-19
2022/09/27 06:49:18;;;;;;;0.45;0.20;;;20.80;60.80;;;;;;4985389;28;20096;-19
2022/09/27 06:51:44;;;;;;;0.77;0.30;;;20.80;61.70;;;;;;4984635;28;20030;-19
2022/09/27 06:54:10;;;;;;;0.70;0.30;;;20.80;60.80;;;;;;4982676;28;20038;-19
2022/09/27 06:56:36;;;;;;;0.65;0.20;;;20.80;61.50;;;;;;4989446;28;20050;-19
2022/09/27 07:02:02;;;;;;;1.08;0.25;;;20.80;60.70;;;;;;4965875;28;20043;-15
2022/09/27 07:04:27;;;;;;;0.22;0.22;;;20.80;60.70;;;;;;4964686;28;20049;-16
2022/09/27 07:06:54;;;;;;;0.55;0.30;;;20.80;60.60;;;;;;4964538;28;20130;-16
2022/09/27 07:09:19;;;;;;;0.80;0.35;;;20.80;60.60;;;;;;4964837;28;20075;-15
2022/09/27 07:11:45;;;;;;;0.22;0.20;;;20.80;60.60;;;;;;4965282;28;20437;-15
2022/09/27 07:14:10;;;;;;;0.38;0.32;;;20.80;60.60;;;;;;4961656;28;20043;-16
2022/09/27 07:16:37;;;;;;;0.88;0.40;;;20.80;61.40;;;;;;4964275;28;20149;-15
2022/09/27 07:19:04;;;;;;;0.30;0.20;;;20.80;60.70;;;;;;4964275;28;20035;-15
2022/09/27 07:21:31;;;;;;;0.52;0.40;;;20.80;60.60;;;;;;4961836;28;20039;-16
2022/09/27 07:23:56;;;;;;;0.20;0.20;;;20.80;60.60;;;;;;4962864;28;20935;-16
2022/09/27 07:26:22;;;;;;;0.60;0.30;;;20.80;60.60;;;;;;4965198;28;20286;-15
2022/09/27 07:28:47;;;;;;;0.60;0.30;;;20.80;60.60;;;;;;4964324;28;20035;-15
2022/09/27 07:31:13;;;;;;;0.40;0.30;;;20.80;60.60;;;;;;4962616;28;20147;-15
2022/09/27 07:33:39;;;;;;;0.52;0.30;;;20.80;60.60;;;;;;4965045;28;20038;-15
2022/09/27 07:36:08;;;;;;;0.30;0.10;;;20.80;60.40;;;;;;4975320;28;20034;-15
2022/09/27 07:38:34;;;;;;;1.02;0.13;;;20.80;60.40;;;;;;4986824;28;20050;-15
2022/09/27 07:41:05;;;;;;;0.88;0.20;;;20.80;60.40;;;;;;4984765;28;20500;-15
2022/09/27 07:43:31;;;;;;;0.30;0.20;;;20.80;61.20;;;;;;4983236;28;20050;-15
2022/09/27 07:45:57;;;;;;;0.20;0.20;;;20.80;60.30;;;;;;4982064;28;20061;-15
2022/09/27 07:48:23;;;;;;;0.60;0.40;;;20.80;60.40;;;;;;4984652;28;20066;-16
2022/09/27 07:50:48;;;;;;;0.30;0.17;;;20.80;60.40;;;;;;4984683;28;20058;-14
2022/09/27 07:53:15;;;;;;;0.10;0.08;;;20.80;60.40;;;;;;4984969;28;20050;-16
2022/09/27 07:55:41;;;;;;;0.40;0.20;;;20.80;60.40;;;;;;4983795;28;20045;-15
2022/09/27 07:58:08;;;;;;;0.70;0.30;;;20.80;60.40;;;;;;4984689;28;20417;-16
2022/09/27 08:00:34;;;;;;;1.02;0.25;;;20.80;60.20;;;;;;4981707;28;20413;-15
2022/09/27 08:03:04;;;;;;;0.30;0.25;;;20.80;61.00;;;;;;4984420;28;20141;-15
2022/09/27 08:05:30;;;;;;;0.20;0.10;;;20.80;60.30;;;;;;4986673;28;20050;-16
2022/09/27 08:07:56;;;;;;;0.70;0.30;;;20.80;60.10;;;;;;4985203;28;20065;-15
2022/09/27 08:10:24;;;;;;;0.28;0.28;;;20.80;60.30;;;;;;4983067;28;20134;-15
2022/09/27 08:12:50;;;;;;;0.22;0.20;;;20.80;60.20;;;;;;4984009;28;20051;-16
2022/09/27 08:15:15;;;;;;;0.50;0.22;;;20.80;61.30;;;;;;4982826;28;20424;-16
2022/09/27 08:17:41;;;;;;;0.20;0.20;;;20.70;60.40;;;;;;4986499;28;20080;-15
2022/09/27 08:20:07;;;;;;;0.60;0.38;;;20.70;60.50;;;;;;4985146;28;20416;-16
2022/09/27 08:22:32;;;;;;;0.30;0.20;;;20.70;60.50;;;;;;4981754;28;20121;-15
2022/09/27 08:24:58;;;;;;;0.10;0.10;;;20.70;60.50;;;;;;4982011;28;20527;-16
2022/09/27 08:27:24;;;;;;;0.20;0.10;;;20.70;60.50;;;;;;4984602;28;20042;-15
2022/09/27 08:29:49;;;;;;;0.15;0.10;;;20.70;60.40;;;;;;4988936;28;20042;-14
2022/09/27 08:32:15;;;;;;;0.50;0.10;;;20.70;60.50;;;;;;4988023;28;20035;-16
2022/09/27 08:34:41;;;;;;;1.02;0.20;;;20.70;60.50;;;;;;4985530;28;20046;-15
2022/09/27 08:37:06;;;;;;;0.50;0.28;;;20.70;60.60;;;;;;4987881;28;20034;-15
2022/09/27 08:39:32;;;;;;;1.02;0.20;;;20.80;60.60;;;;;;4989038;28;20396;-15
2022/09/27 08:42:06;;;;;;;0.20;0.17;;;20.80;60.30;;;;;;4989030;28;20043;-14
2022/09/27 08:44:49;;;;;;;0.35;0.13;;;20.80;60.40;;;;;;4988197;28;20046;-16
2022/09/27 08:47:31;;;;;;;0.28;0.28;;;20.80;60.40;;;;;;4999378;28;20046;-17
2022/09/27 08:50:03;;;;;;;0.40;0.20;;;20.80;60.40;;;;;;4988397;28;20153;-15
2022/09/27 08:52:33;;;;;;;0.30;0.10;;;20.80;60.30;;;;;;4987986;28;20472;-15
2022/09/27 08:55:01;;;;;;;0.30;0.20;;;20.80;60.30;;;;;;4988276;28;20026;-16
2022/09/27 08:57:26;;;;;;;0.30;0.10;;;20.80;60.20;;;;;;4987279;28;20045;-14
2022/09/27 09:00:07;;;;;;;0.40;0.22;;;20.80;60.10;;;;;;4988712;28;20046;-15
2022/09/27 09:02:33;;;;;;;0.40;0.15;;;20.80;60.10;;;;;;4989996;28;20137;-14
2022/09/27 09:05:30;;;;;;;0.57;0.35;;;20.80;60.10;;;;;;4988181;28;20046;-15
2022/09/27 09:08:14;;;;;;;0.20;0.20;;;20.80;60.10;;;;;;5010767;28;20129;-16
2022/09/27 09:13:51;;;;;;;0.20;0.10;;;20.80;60.40;;;;;;4987511;28;20100;-15
2022/09/27 09:16:20;;;;;;;0.50;0.30;;;20.80;59.80;;;;;;4985295;28;20050;-16
2022/09/27 09:18:56;;;;;;;0.20;0.20;;;20.80;59.80;;;;;;4988662;28;20097;-15
2022/09/27 09:21:44;;;;;;;0.40;0.30;;;20.80;59.80;;;;;;5001005;28;20393;-16
2022/09/27 09:24:10;;;;;;;0.30;0.20;;;20.80;59.70;;;;;;4985766;28;20162;-15
2022/09/27 09:26:43;;;;;;;0.20;0.10;;;20.80;59.80;;;;;;4990246;28;20555;-15
2022/09/27 09:29:18;;;;;;;0.10;0.10;;;20.80;59.80;;;;;;4991873;28;20121;-15
2022/09/27 09:32:33;;;;;;;0.13;0.10;;;20.90;59.80;;;;;;4986413;28;20078;-15
2022/09/27 09:35:05;;;;;;;0.20;0.20;;;20.90;59.90;;;;;;4912798;29;20060;-15
2022/09/27 09:37:38;;;;;;;0.63;0.20;;;20.90;59.70;;;;;;4911267;28;20044;-15
2022/09/27 09:40:18;;;;;;;0.40;0.22;;;20.90;59.70;;;;;;4924566;28;20135;-15
2022/09/27 09:43:16;;;;;;;0.35;0.20;;;20.90;59.70;;;;;;4925047;28;20543;-22
2022/09/27 09:45:46;;;;;;;0.13;0.10;;;20.90;59.80;;;;;;4913319;29;20257;-15
2022/09/27 09:48:27;;;;;;;0.35;0.20;;;20.90;59.60;;;;;;4929034;28;20047;-16
2022/09/27 09:50:54;;;;;;;0.30;0.30;;;20.90;59.70;;;;;;4926902;28;20560;-15
2022/09/27 09:53:33;;;;;;;0.47;0.30;;;20.90;59.70;;;;;;4945083;28;20040;-17
2022/09/27 09:56:09;;;;;;;0.30;0.20;;;20.90;59.70;;;;;;4895191;29;20390;-15
2022/09/27 09:58:42;;;;;;;0.28;0.20;;;20.90;59.60;;;;;;4910653;28;20599;-16
2022/09/27 10:01:21;;;;;;;0.35;0.28;;;20.90;59.70;;;;;;4926778;28;20046;-14
2022/09/27 10:03:46;;;;;;;0.30;0.17;;;21.00;59.70;;;;;;4912393;28;20064;-17
2022/09/27 10:06:12;;;;;;;0.75;0.38;;;20.90;59.70;;;;;;4895432;29;20540;-14
2022/09/27 10:08:38;;;;;;;0.25;0.10;;;20.90;59.70;;;;;;4959840;28;20035;-15
2022/09/27 10:11:03;;;;;;;0.82;0.30;;;21.00;59.80;;;;;;5018162;28;20046;-15
2022/09/27 10:13:29;;;;;;;0.32;0.20;;;21.00;59.70;;;;;;4986953;28;20563;-16
2022/09/27 10:16:21;;;;;;;0.32;0.15;;;21.00;59.70;;;;;;4986141;28;20463;-15
2022/09/27 10:18:47;;;;;;;0.10;0.10;;;21.00;59.80;;;;;;4976370;28;20058;-14
2022/09/27 10:21:19;;;;;;;0.38;0.22;;;21.00;59.70;;;;;;4999208;28;20053;-18
2022/09/27 10:24:15;;;;;;;0.35;0.30;;;21.00;59.70;;;;;;4982627;28;20528;-15
2022/09/27 10:26:42;;;;;;;0.28;0.20;;;21.00;59.70;;;;;;4983196;28;20121;-15
2022/09/27 10:29:31;;;;;;;0.50;0.30;;;21.00;59.70;;;;;;4987289;28;20420;-15
2022/09/27 10:31:57;;;;;;;0.68;0.38;;;21.00;59.70;;;;;;4985367;28;20117;-15
2022/09/27 10:34:33;;;;;;;0.17;0.17;;;21.00;59.60;;;;;;4969609;28;20035;-16
2022/09/27 10:37:11;;;;;;;0.43;0.20;;;21.00;59.60;;;;;;4984392;28;20455;-15
2022/09/27 10:39:40;;;;;;;0.30;0.20;;;21.00;59.50;;;;;;4984972;28;20065;-16
2022/09/27 10:42:32;;;;;;;0.55;0.35;;;21.00;59.60;;;;;;5010955;28;20123;-15
2022/09/27 10:45:00;;;;;;;0.40;0.30;;;21.00;59.70;;;;;;4983722;28;20070;-15
2022/09/27 10:47:27;;;;;;;0.50;0.35;;;21.00;59.70;;;;;;5002279;28;20411;-16
2022/09/27 10:50:00;;;;;;;0.50;0.30;;;21.00;59.60;;;;;;5009617;28;20524;-15
2022/09/27 10:52:26;;;;;;;0.30;0.30;;;21.10;59.60;;;;;;4985521;28;20053;-16
2022/09/27 10:55:04;;;;;;;0.17;0.17;;;21.00;59.60;;;;;;5009332;28;20121;-15
2022/09/27 10:57:30;;;;;;;0.10;0.10;;;21.00;59.60;;;;;;4985112;28;20578;-15
2022/09/27 10:59:58;;;;;;;0.25;0.13;;;21.00;59.70;;;;;;4985653;28;20050;-15
2022/09/27 11:02:30;;;;;;;0.35;0.20;;;21.00;59.70;;;;;;4988816;28;20089;-19
2022/09/27 11:05:11;;;;;;;0.60;0.28;;;21.00;59.70;;;;;;4985168;28;20034;-15
2022/09/27 11:07:46;;;;;;;0.40;0.20;;;21.00;59.70;;;;;;4985112;28;20496;-15
2022/09/27 11:10:34;;;;;;;0.10;0.10;;;21.00;59.50;;;;;;4986572;28;20491;-16
2022/09/27 11:13:16;;;;;;;0.25;0.15;;;21.00;59.70;;;;;;4983487;28;20062;-14
2022/09/27 11:16:07;;;;;;;0.55;0.10;;;21.00;59.60;;;;;;4983742;28;20038;-15
2022/09/27 11:18:57;;;;;;;0.32;0.13;;;21.00;59.70;;;;;;4979550;28;20491;-15
2022/09/27 11:21:45;;;;;;;0.45;0.20;;;21.00;59.70;;;;;;4983561;28;20042;-15
2022/09/27 11:24:23;;;;;;;0.40;0.20;;;21.00;59.60;;;;;;4981659;28;20066;-15
2022/09/27 11:27:14;;;;;;;0.47;0.40;;;21.10;59.70;;;;;;4983015;28;20656;-15
2022/09/27 11:30:03;;;;;;;0.20;0.20;;;21.00;59.60;;;;;;4986831;28;20399;-15
2022/09/27 11:32:34;;;;;;;0.40;0.28;;;21.00;59.70;;;;;;4985201;28;20052;-15
2022/09/27 11:35:09;;;;;;;0.30;0.30;;;21.00;59.70;;;;;;4983719;28;20057;-16
2022/09/27 11:38:01;;;;;;;0.30;0.20;;;21.00;59.70;;;;;;4984266;28;20037;-15
2022/09/27 11:40:49;;;;;;;0.25;0.22;;;21.00;59.70;;;;;;4984316;28;20045;-16
2022/09/27 11:43:34;;;;;;;0.30;0.28;;;21.00;59.70;;;;;;4982611;28;20038;-15
2022/09/27 11:46:12;;;;;;;0.20;0.10;;;21.00;59.60;;;;;;4984414;28;20038;-15
2022/09/27 11:48:56;;;;;;;0.10;0.10;;;21.10;59.60;;;;;;4982527;28;20514;-15
2022/09/27 11:51:40;;;;;;;0.20;0.20;;;21.10;59.60;;;;;;4984299;28;20053;-16
2022/09/27 11:54:41;;;;;;;0.22;0.15;;;21.10;59.60;;;;;;5005565;28;20043;-15
2022/09/27 11:58:02;;;;;;;0.20;0.15;;;21.00;59.50;;;;;;4982668;28;20046;-16
2022/09/27 12:00:50;;;;;;;0.30;0.30;;;21.00;59.50;;;;;;4902141;29;20104;-16
2022/09/27 12:03:31;;;;;;;0.30;0.20;;;21.10;59.50;;;;;;4904838;29;20083;-14
2022/09/27 12:06:11;;;;;;;0.30;0.30;;;21.10;59.60;;;;;;4891559;29;20131;-15
2022/09/27 12:09:01;;;;;;;0.38;0.30;;;21.10;60.20;;;;;;4903772;29;20048;-15
2022/09/27 12:11:35;;;;;;;0.45;0.40;;;21.00;59.50;;;;;;4891091;29;20052;-15
2022/09/27 12:14:12;;;;;;;0.20;0.20;;;21.00;60.20;;;;;;4889928;29;20068;-15
2022/09/27 12:16:38;;;;;;;0.45;0.30;;;21.10;59.60;;;;;;4888258;29;20041;-15
2022/09/27 12:19:04;;;;;;;0.50;0.30;;;21.00;59.50;;;;;;4889726;29;20047;-16
2022/09/27 12:21:30;;;;;;;0.40;0.20;;;21.00;59.60;;;;;;4884600;29;20053;-16
2022/09/27 12:23:58;;;;;;;0.40;0.35;;;21.10;60.30;;;;;;4904842;29;20127;-15
2022/09/27 12:26:44;;;;;;;0.95;0.30;;;21.00;59.50;;;;;;4875642;29;20059;-16
2022/09/27 12:29:32;;;;;;;0.20;0.20;;;21.00;59.50;;;;;;4903121;29;20046;-14
2022/09/27 12:32:14;;;;;;;0.57;0.30;;;21.00;59.50;;;;;;4907413;29;20062;-15
2022/09/27 12:35:04;;;;;;;0.45;0.30;;;21.00;59.50;;;;;;4927709;28;20038;-15
2022/09/27 12:37:45;;;;;;;0.82;0.38;;;21.00;59.50;;;;;;4982322;28;20041;-16
2022/09/27 12:40:28;;;;;;;1.25;0.40;;;21.00;59.50;;;;;;4981960;28;20050;-15
2022/09/27 12:43:05;;;;;;;0.30;0.30;;;21.00;59.50;;;;;;4984148;28;20492;-16
2022/09/27 12:45:53;;;;;;;0.40;0.30;;;21.00;59.60;;;;;;4968992;28;20089;-15
2022/09/27 12:48:51;;;;;;;0.30;0.25;;;21.00;59.50;;;;;;4982604;28;20050;-16
2022/09/27 12:51:19;;;;;;;0.30;0.20;;;21.00;59.50;;;;;;4981594;28;20051;-15
2022/09/27 12:53:53;;;;;;;0.63;0.30;;;21.00;59.60;;;;;;4997038;28;20057;-15
2022/09/27 12:56:31;;;;;;;0.68;0.30;;;21.00;59.60;;;;;;4985756;28;20046;-15
2022/09/27 12:59:00;;;;;;;0.50;0.35;;;21.00;59.60;;;;;;5008626;28;20492;-15
2022/09/27 13:02:02;;;;;;;1.23;0.75;;;21.00;59.60;;;;;;4982986;28;20044;-19
2022/09/27 13:04:51;;;;;;;0.88;0.30;;;21.00;59.50;;;;;;4983359;28;20118;-19
2022/09/27 13:07:52;;;;;;;0.30;0.30;;;21.00;59.60;;;;;;4983839;28;20046;-19
2022/09/27 13:10:28;;;;;;;0.35;0.20;;;21.00;59.60;;;;;;4982255;28;20042;-19
2022/09/27 13:12:54;;;;;;;0.60;0.30;;;21.00;59.60;;;;;;4982766;28;20089;-19
2022/09/27 13:15:30;;;;;;;0.20;0.20;;;21.00;60.20;;;;;;5002000;28;20455;-20
2022/09/27 13:17:58;;;;;;;0.52;0.38;;;21.00;59.50;;;;;;5001645;28;20046;-19
2022/09/27 13:20:29;;;;;;;0.73;0.30;;;21.00;59.50;;;;;;4990480;28;20046;-19
2022/09/27 13:22:56;;;;;;;0.32;0.30;;;21.00;59.60;;;;;;4983735;28;20050;-19